Flight Track Log - Related Links

Times and Time Zones

All times are in EDT time to prevent confusion due to time zone crossing. See the CTL13 flight status page for this flight to view local times or setup timezone preferences in your user account.

Time Position Orientation Groundspeed Altitude Reporting Facility
EDT Latitude Longitude Course Direction KTS MPH feet Rate Location/Type
Fri 09:13:25 PM 39.9000 -86.2667 17° North 183 211 2,300  Level Indianapolis TRACON
Fri 09:14:25 PM 39.9500 -86.3000 333° Northwest 195 224 2,700 382 Climbing Indianapolis TRACON
Fri 09:15:15 PM 39.9781 -86.3383 314° West 191 220 3,000 389 Climbing Chicago Center
Fri 09:16:13 PM 40.0150 -86.3861 315° West 191 220 3,400 303 Climbing Indianapolis Center
Fri 09:17:14 PM 40.0525 -86.4361 314° West 192 221 3,600 246 Climbing Indianapolis Center
Fri 09:18:00 PM 39.8351 -86.2927 17° North  Level FlightAware Approximate
Fri 09:18:15 PM 40.0919 -86.4836 317° Northwest 193 222 3,900  Level Indianapolis Center
Fri 09:19:23 PM 40.1442 -86.5403 320° Northwest 198 228 4,000 46 Climbing Chicago Center
Fri 09:20:25 PM 40.1878 -86.5897 319° Northwest 203 234 4,000  Level Chicago Center
Fri 09:20:45 PM 40.2036 -86.6147 310° West 203 234 4,000  Level Chicago Center
Fri 09:21:26 PM 40.2281 -86.6389 323° Northwest 202 232 4,000  Level Chicago Center
Fri 09:21:46 PM 40.2417 -86.6633 306° West 201 231 4,000  Level Chicago Center
Fri 09:22:28 PM 40.2672 -86.6894 322° Northwest 200 230 4,000  Level Chicago Center
Fri 09:22:46 PM 40.2836 -86.7150 310° West 200 230 4,000  Level Chicago Center
Fri 09:23:30 PM 40.3133 -86.7525 316° Northwest 200 230 4,000  Level Chicago Center
Fri 09:23:47 PM 40.3214 -86.7664 307° West 200 230 4,000  Level Chicago Center
Fri 09:24:32 PM 40.3522 -86.8033 318° Northwest 198 228 4,000  Level Chicago Center
Fri 09:24:47 PM 40.3611 -86.8208 304° West 197 227 4,000  Level Chicago Center
Fri 09:25:34 PM 40.3908 -86.8536 320° Northwest 198 228 4,000  Level Chicago Center
Fri 09:26:36 PM 40.4306 -86.9022 317° Northwest 197 227 4,000  Level Chicago Center
Fri 09:27:37 PM 40.4694 -86.9539 315° West 198 228 4,000  Level Chicago Center
Fri 09:28:39 PM 40.5094 -87.0036 317° Northwest 199 229 4,000  Level Chicago Center
Fri 09:29:41 PM 40.5572 -87.0650 316° Northwest 200 230 4,000  Level Chicago Center
Fri 09:30:43 PM 40.6078 -87.0939 337° Northwest 197 227 4,000  Level Chicago Center
Fri 09:31:44 PM 40.6561 -87.1181 339° North 198 228 4,000  Level Chicago Center
Fri 09:32:46 PM 40.7069 -87.1458 338° Northwest 198 228 4,000  Level Chicago Center
Fri 09:33:48 PM 40.7664 -87.1797 337° Northwest 197 227 4,000  Level Chicago Center
Fri 09:34:50 PM 40.8172 -87.2061 339° North 196 226 4,000  Level Chicago Center
Fri 09:35:52 PM 40.8678 -87.2342 337° Northwest 197 227 4,000  Level Chicago Center
Fri 09:36:53 PM 40.9175 -87.2617 337° Northwest 197 227 4,000  Level Chicago Center
Fri 09:37:55 PM 40.9686 -87.2894 338° Northwest 198 228 4,000 48 Level Chicago Center
Fri 09:38:57 PM 41.0203 -87.3172 338° Northwest 199 229 4,100 48 Climbing Chicago Center
Fri 09:39:59 PM 41.0808 -87.3492 338° Northwest 198 228 4,100  Level Chicago Center
Fri 09:41:00 PM 41.1325 -87.3750 339° North 198 228 4,100  Level Chicago Center
Fri 09:42:02 PM 41.1822 -87.4089 333° Northwest 201 231 4,100  Level Chicago Center
Fri 09:43:04 PM 41.2228 -87.4586 317° Northwest 200 230 4,100  Level Chicago Center
Fri 09:44:05 PM 41.2619 -87.5119 314° West 201 231 4,100  Level Chicago Center
Fri 09:45:07 PM 41.3033 -87.5628 317° Northwest 203 234 4,100  Level Chicago Center
Fri 09:46:09 PM 41.3511 -87.6214 317° Northwest 200 230 4,100  Level Chicago Center
Fri 09:47:10 PM 41.3908 -87.6692 318° Northwest 197 227 4,100  Level Chicago Center
Fri 09:48:12 PM 41.4311 -87.7175 318° Northwest 196 226 4,100 -38 Level Chicago Center
Fri 09:49:49 PM 41.5000 -87.8000 318° Northwest 203 234 4,000 -38 Descending Chicago TRACON
Fri 09:50:49 PM 41.5333 -87.8667 304° West 205 236 4,000 68 Level Chicago TRACON
Fri 09:51:17 PM 41.5442 -87.8781 322° Northwest 201 231 4,100 67 Climbing Chicago Center
Fri 09:52:19 PM 41.5817 -87.9514 304° West 202 232 4,100  Level Chicago Center
Fri 09:53:20 PM 41.6139 -87.9806 326° Northwest 201 231 4,100 -98 Level Chicago Center
Fri 09:54:22 PM 41.6414 -87.9356 51° Northeast 174 200 3,900 -532 Descending Chicago Center
Fri 09:55:24 PM 41.6706 -87.8942 47° Northeast 161 185 3,000 -1,023 Descending Chicago Center
Fri 09:55:50 PM 41.6833 -87.8667 58° Northeast 145 167 2,400 -419 Descending Chicago TRACON
Fri 09:56:50 PM 41.7167 -87.8333 37° Northeast 137 158 2,400 -400 Level Chicago TRACON
Fri 09:57:50 PM 41.7333 -87.8000 56° Northeast 126 145 1,600 -650 Descending Chicago TRACON
Fri 09:58:50 PM 41.7667 -87.7833 20° North 100 115 1,100 -500 Descending Chicago TRACON

Login

Don't have an account? Register now (free) for customized features, flight alerts, and more!